San Diego, California
Traffic Map
Current Weather Conditions
San Diego, California
Scattered Clouds
Scattered Clouds
60°
Feels Like: 60°
Wind Chill: 60° Ceiling: Unl
Heat Index: 60° Visibility: 10mi
Dew Point: 38° Wind: 7mph
Humidity: 44% Direction: 280° (W)
Pressure: 30.14in Gusts: 0mph
Raw Report DataKSAN 251851Z 28006KT 10SM SCT200 16/03 A3014 RMK AO2 SLP207 T01560033
Traffic Incident Summary
Active as of:
Severity:
Category:
InformationThere was an issue retrieving the traffic information for this location. Please try a different location or try again shortly.
Advertisements
Track Severe Weather on mobile